Terminal Aerodrome Forecast
Issued by NWS

Home | Current Version | Previous Version | Text Only | Print | Product List | Glossary On
Versions: 1 2 3 4 5 6 7 8 9 10 11 12 13 14 15 16 17 18 19 20 21 22 23 24 25 26 27 28 29
529
FTUS45 KPSR 202339
TAFPHX
TAF
KPHX 202339Z 2100/2206 26007KT P6SM FEW100 SCT130 SCT200
     FM210300 10009KT P6SM SCT100 BKN130 BKN200
     FM212100 27007KT P6SM SCT130=

USA.gov is the U.S. government's official web portal to all federal, state and local government web resources and services.